sensor_id;sensor_type;location;lat;lon;timestamp;pressure;altitude;pressure_sealevel;temperature;humidity
3464;BME280;3551;41.578;24.706;2022-10-16T00:02:39;91732.84;;;8.05;100.00
3464;BME280;3551;41.578;24.706;2022-10-16T00:05:11;91771.16;;;8.26;100.00
3464;BME280;3551;41.578;24.706;2022-10-16T00:07:42;91710.56;;;8.20;100.00
3464;BME280;3551;41.578;24.706;2022-10-16T00:10:13;91745.06;;;8.39;100.00
3464;BME280;3551;41.578;24.706;2022-10-16T00:12:46;91797.31;;;8.47;100.00
3464;BME280;3551;41.578;24.706;2022-10-16T00:15:28;91752.34;;;8.42;100.00
3464;BME280;3551;41.578;24.706;2022-10-16T00:18:11;91760.56;;;8.30;100.00
3464;BME280;3551;41.578;24.706;2022-10-16T00:20:43;91752.25;;;8.35;100.00
3464;BME280;3551;41.578;24.706;2022-10-16T00:23:32;91759.53;;;8.38;100.00
3464;BME280;3551;41.578;24.706;2022-10-16T00:26:22;91765.91;;;8.04;100.00
3464;BME280;3551;41.578;24.706;2022-10-16T00:29:19;91798.25;;;8.02;100.00
3464;BME280;3551;41.578;24.706;2022-10-16T00:32:17;91750.56;;;7.64;100.00
3464;BME280;3551;41.578;24.706;2022-10-16T00:35:36;91738.81;;;7.68;100.00
3464;BME280;3551;41.578;24.706;2022-10-16T00:38:17;91768.28;;;7.82;100.00
3464;BME280;3551;41.578;24.706;2022-10-16T00:41:24;91743.44;;;8.01;100.00
3464;BME280;3551;41.578;24.706;2022-10-16T00:44:00;91744.44;;;7.89;100.00
3464;BME280;3551;41.578;24.706;2022-10-16T00:46:52;91715.84;;;7.57;100.00
3464;BME280;3551;41.578;24.706;2022-10-16T00:49:48;91752.56;;;7.48;100.00
3464;BME280;3551;41.578;24.706;2022-10-16T00:52:34;91724.97;;;7.29;100.00
3464;BME280;3551;41.578;24.706;2022-10-16T00:55:19;91744.06;;;7.61;100.00
3464;BME280;3551;41.578;24.706;2022-10-16T00:58:15;91743.22;;;7.83;100.00
3464;BME280;3551;41.578;24.706;2022-10-16T01:01:25;91733.66;;;7.53;100.00
3464;BME280;3551;41.578;24.706;2022-10-16T01:04:07;91766.59;;;7.71;100.00
3464;BME280;3551;41.578;24.706;2022-10-16T01:07:01;91740.56;;;7.31;100.00
3464;BME280;3551;41.578;24.706;2022-10-16T01:10:20;91744.00;;;7.58;100.00
3464;BME280;3551;41.578;24.706;2022-10-16T01:13:07;91750.28;;;7.46;100.00
3464;BME280;3551;41.578;24.706;2022-10-16T01:15:48;91735.41;;;7.19;100.00
3464;BME280;3551;41.578;24.706;2022-10-16T01:18:35;91742.47;;;7.08;100.00
3464;BME280;3551;41.578;24.706;2022-10-16T01:21:31;91745.94;;;7.34;100.00
3464;BME280;3551;41.578;24.706;2022-10-16T01:24:24;91798.66;;;7.52;100.00
3464;BME280;3551;41.578;24.706;2022-10-16T01:27:38;91762.25;;;7.33;100.00
3464;BME280;3551;41.578;24.706;2022-10-16T01:30:37;91791.16;;;7.34;100.00
3464;BME280;3551;41.578;24.706;2022-10-16T01:33:22;91754.06;;;7.45;100.00
3464;BME280;3551;41.578;24.706;2022-10-16T01:36:44;91779.56;;;7.01;100.00
3464;BME280;3551;41.578;24.706;2022-10-16T01:39:58;91770.69;;;6.70;100.00
3464;BME280;3551;41.578;24.706;2022-10-16T01:42:48;91787.84;;;6.96;100.00
3464;BME280;3551;41.578;24.706;2022-10-16T01:45:48;91786.72;;;6.97;100.00
3464;BME280;3551;41.578;24.706;2022-10-16T01:48:34;91749.56;;;7.00;100.00
3464;BME280;3551;41.578;24.706;2022-10-16T01:51:14;91770.22;;;7.33;100.00
3464;BME280;3551;41.578;24.706;2022-10-16T01:53:55;91784.47;;;7.44;100.00
3464;BME280;3551;41.578;24.706;2022-10-16T02:00:15;91767.66;;;6.91;100.00
3464;BME280;3551;41.578;24.706;2022-10-16T02:03:16;91762.09;;;7.00;100.00
3464;BME280;3551;41.578;24.706;2022-10-16T02:05:56;91788.75;;;7.26;100.00
3464;BME280;3551;41.578;24.706;2022-10-16T02:08:40;91751.69;;;6.91;100.00
3464;BME280;3551;41.578;24.706;2022-10-16T02:11:24;91784.28;;;6.46;100.00
3464;BME280;3551;41.578;24.706;2022-10-16T02:14:03;91805.53;;;6.65;100.00
3464;BME280;3551;41.578;24.706;2022-10-16T02:16:50;91779.16;;;6.57;100.00
3464;BME280;3551;41.578;24.706;2022-10-16T02:26:27;91767.66;;;6.30;100.00
3464;BME280;3551;41.578;24.706;2022-10-16T02:29:25;91800.44;;;6.38;100.00
3464;BME280;3551;41.578;24.706;2022-10-16T02:32:32;91795.25;;;6.64;100.00
3464;BME280;3551;41.578;24.706;2022-10-16T02:35:21;91796.66;;;6.58;100.00
3464;BME280;3551;41.578;24.706;2022-10-16T02:41:02;91765.34;;;6.48;100.00
3464;BME280;3551;41.578;24.706;2022-10-16T02:43:59;91803.56;;;6.43;100.00
3464;BME280;3551;41.578;24.706;2022-10-16T02:46:46;91823.78;;;6.67;100.00
3464;BME280;3551;41.578;24.706;2022-10-16T02:49:42;91844.03;;;6.75;100.00
3464;BME280;3551;41.578;24.706;2022-10-16T02:52:16;91815.66;;;6.60;100.00
3464;BME280;3551;41.578;24.706;2022-10-16T02:54:57;91798.38;;;6.69;100.00
3464;BME280;3551;41.578;24.706;2022-10-16T02:57:44;91796.25;;;6.56;100.00
3464;BME280;3551;41.578;24.706;2022-10-16T03:00:32;91824.13;;;6.46;100.00
3464;BME280;3551;41.578;24.706;2022-10-16T03:03:27;91779.47;;;6.13;100.00
3464;BME280;3551;41.578;24.706;2022-10-16T03:06:47;91837.00;;;6.83;100.00
3464;BME280;3551;41.578;24.706;2022-10-16T03:09:28;91839.31;;;6.65;100.00
3464;BME280;3551;41.578;24.706;2022-10-16T03:12:48;91817.69;;;6.28;100.00
3464;BME280;3551;41.578;24.706;2022-10-16T03:16:04;91820.50;;;6.35;100.00
3464;BME280;3551;41.578;24.706;2022-10-16T03:19:11;91833.97;;;6.46;100.00
3464;BME280;3551;41.578;24.706;2022-10-16T03:22:16;91813.31;;;6.36;100.00
3464;BME280;3551;41.578;24.706;2022-10-16T03:25:02;91856.50;;;6.52;100.00
3464;BME280;3551;41.578;24.706;2022-10-16T03:28:06;91861.81;;;6.52;100.00
3464;BME280;3551;41.578;24.706;2022-10-16T03:34:13;91871.78;;;6.39;100.00
3464;BME280;3551;41.578;24.706;2022-10-16T03:50:36;91861.66;;;6.26;100.00
3464;BME280;3551;41.578;24.706;2022-10-16T03:53:31;91839.81;;;5.97;100.00
3464;BME280;3551;41.578;24.706;2022-10-16T03:56:41;91859.66;;;6.38;100.00
3464;BME280;3551;41.578;24.706;2022-10-16T03:59:23;91876.63;;;6.34;100.00
3464;BME280;3551;41.578;24.706;2022-10-16T04:02:48;91830.38;;;5.84;100.00
3464;BME280;3551;41.578;24.706;2022-10-16T04:16:25;91854.47;;;6.26;100.00
3464;BME280;3551;41.578;24.706;2022-10-16T04:19:46;91869.69;;;6.10;100.00
3464;BME280;3551;41.578;24.706;2022-10-16T04:22:36;91801.34;;;5.56;100.00
3464;BME280;3551;41.578;24.706;2022-10-16T04:25:22;91859.34;;;5.74;100.00
3464;BME280;3551;41.578;24.706;2022-10-16T04:28:36;91863.59;;;6.09;100.00
3464;BME280;3551;41.578;24.706;2022-10-16T04:42:04;91860.81;;;6.21;100.00
3464;BME280;3551;41.578;24.706;2022-10-16T04:45:16;91844.72;;;5.64;100.00
3464;BME280;3551;41.578;24.706;2022-10-16T04:47:59;91909.94;;;5.96;100.00
3464;BME280;3551;41.578;24.706;2022-10-16T04:57:06;91876.38;;;6.04;100.00
3464;BME280;3551;41.578;24.706;2022-10-16T05:00:23;91857.09;;;5.76;100.00
3464;BME280;3551;41.578;24.706;2022-10-16T05:06:13;91914.22;;;6.01;100.00
3464;BME280;3551;41.578;24.706;2022-10-16T05:08:44;91906.69;;;6.03;100.00
3464;BME280;3551;41.578;24.706;2022-10-16T05:11:20;91867.34;;;6.08;100.00
3464;BME280;3551;41.578;24.706;2022-10-16T05:13:59;91873.78;;;6.07;100.00
3464;BME280;3551;41.578;24.706;2022-10-16T05:16:46;91894.28;;;6.26;100.00
3464;BME280;3551;41.578;24.706;2022-10-16T05:19:46;91902.75;;;6.86;100.00
3464;BME280;3551;41.578;24.706;2022-10-16T05:22:14;91863.28;;;7.52;100.00
3464;BME280;3551;41.578;24.706;2022-10-16T05:24:44;91902.16;;;8.58;98.27
3464;BME280;3551;41.578;24.706;2022-10-16T05:27:24;91894.47;;;9.49;91.13
3464;BME280;3551;41.578;24.706;2022-10-16T05:29:57;91862.34;;;9.39;89.53
3464;BME280;3551;41.578;24.706;2022-10-16T05:32:36;91906.66;;;9.47;89.00
3464;BME280;3551;41.578;24.706;2022-10-16T05:35:09;91911.75;;;9.59;89.89
3464;BME280;3551;41.578;24.706;2022-10-16T05:38:00;91903.94;;;10.28;87.90
3464;BME280;3551;41.578;24.706;2022-10-16T05:40:50;91909.91;;;10.10;85.68
3464;BME280;3551;41.578;24.706;2022-10-16T05:43:26;91930.16;;;10.62;87.81
3464;BME280;3551;41.578;24.706;2022-10-16T05:46:12;91943.72;;;10.91;85.44
3464;BME280;3551;41.578;24.706;2022-10-16T05:49:00;91926.31;;;10.60;85.19
3464;BME280;3551;41.578;24.706;2022-10-16T05:51:34;91930.31;;;10.87;87.50
3464;BME280;3551;41.578;24.706;2022-10-16T05:54:05;91939.16;;;10.98;86.61
3464;BME280;3551;41.578;24.706;2022-10-16T05:57:09;91903.16;;;10.24;87.79
3464;BME280;3551;41.578;24.706;2022-10-16T06:03:13;91942.09;;;10.21;92.28
3464;BME280;3551;41.578;24.706;2022-10-16T06:05:58;91910.16;;;9.98;92.28
3464;BME280;3551;41.578;24.706;2022-10-16T06:08:29;91898.97;;;9.82;92.96
3464;BME280;3551;41.578;24.706;2022-10-16T06:11:14;91880.25;;;9.79;91.98
3464;BME280;3551;41.578;24.706;2022-10-16T06:13:54;91921.06;;;9.39;93.20
3464;BME280;3551;41.578;24.706;2022-10-16T06:16:58;91937.91;;;9.46;94.06
3464;BME280;3551;41.578;24.706;2022-10-16T06:19:55;91919.81;;;9.29;94.41
3464;BME280;3551;41.578;24.706;2022-10-16T06:22:54;91911.00;;;9.25;93.72
3464;BME280;3551;41.578;24.706;2022-10-16T06:26:09;91907.97;;;9.27;96.07
3464;BME280;3551;41.578;24.706;2022-10-16T06:29:56;91914.44;;;9.26;97.23
3464;BME280;3551;41.578;24.706;2022-10-16T06:33:04;91919.00;;;9.62;98.53
3464;BME280;3551;41.578;24.706;2022-10-16T06:36:23;91974.28;;;9.98;96.75
3464;BME280;3551;41.578;24.706;2022-10-16T06:39:25;91927.63;;;9.85;96.55
3464;BME280;3551;41.578;24.706;2022-10-16T06:42:25;91980.50;;;10.06;95.62
3464;BME280;3551;41.578;24.706;2022-10-16T06:45:14;91939.56;;;9.95;97.06
3464;BME280;3551;41.578;24.706;2022-10-16T06:47:59;91956.38;;;9.99;95.95
3464;BME280;3551;41.578;24.706;2022-10-16T06:50:55;91943.94;;;10.13;96.26
3464;BME280;3551;41.578;24.706;2022-10-16T06:53:58;91932.69;;;9.97;96.47
3464;BME280;3551;41.578;24.706;2022-10-16T06:57:26;91954.66;;;10.17;96.87
3464;BME280;3551;41.578;24.706;2022-10-16T07:01:10;91955.53;;;10.32;98.33
3464;BME280;3551;41.578;24.706;2022-10-16T07:04:31;91928.69;;;10.18;97.77
3464;BME280;3551;41.578;24.706;2022-10-16T07:07:32;91923.41;;;10.28;97.17
3464;BME280;3551;41.578;24.706;2022-10-16T07:11:22;91938.78;;;10.38;97.37
3464;BME280;3551;41.578;24.706;2022-10-16T07:18:07;91928.88;;;9.95;95.16
3464;BME280;3551;41.578;24.706;2022-10-16T07:21:43;91945.97;;;10.31;95.87
3464;BME280;3551;41.578;24.706;2022-10-16T07:25:12;91920.00;;;10.31;94.42
3464;BME280;3551;41.578;24.706;2022-10-16T09:53:11;91901.63;;;14.32;65.31
3464;BME280;3551;41.578;24.706;2022-10-16T09:58:31;91913.19;;;14.22;66.94
3464;BME280;3551;41.578;24.706;2022-10-16T10:00:59;91900.38;;;14.44;68.55
3464;BME280;3551;41.578;24.706;2022-10-16T10:03:38;91900.22;;;14.61;67.54
3464;BME280;3551;41.578;24.706;2022-10-16T10:22:45;91897.22;;;14.93;65.16
3464;BME280;3551;41.578;24.706;2022-10-16T10:25:19;91899.91;;;14.93;65.26
3464;BME280;3551;41.578;24.706;2022-10-16T10:33:21;91890.72;;;14.91;63.14
3464;BME280;3551;41.578;24.706;2022-10-16T10:39:07;91886.63;;;14.76;64.06
3464;BME280;3551;41.578;24.706;2022-10-16T10:51:08;91877.91;;;14.98;64.76
3464;BME280;3551;41.578;24.706;2022-10-16T10:57:00;91863.19;;;14.73;64.92
3464;BME280;3551;41.578;24.706;2022-10-16T11:07:54;91854.16;;;14.90;64.70
3464;BME280;3551;41.578;24.706;2022-10-16T11:10:28;91866.22;;;14.75;66.43
3464;BME280;3551;41.578;24.706;2022-10-16T11:13:04;91858.28;;;14.98;65.06
3464;BME280;3551;41.578;24.706;2022-10-16T11:15:36;91880.47;;;15.12;61.98
3464;BME280;3551;41.578;24.706;2022-10-16T11:21:10;91866.44;;;14.94;57.68
3464;BME280;3551;41.578;24.706;2022-10-16T11:23:42;91867.91;;;14.99;56.56
3464;BME280;3551;41.578;24.706;2022-10-16T11:26:15;91863.59;;;15.08;55.34
3464;BME280;3551;41.578;24.706;2022-10-16T11:28:48;91865.69;;;15.24;54.08
3464;BME280;3551;41.578;24.706;2022-10-16T11:31:19;91863.91;;;15.14;54.40
3464;BME280;3551;41.578;24.706;2022-10-16T11:33:54;91878.75;;;14.92;54.35
3464;BME280;3551;41.578;24.706;2022-10-16T11:36:29;91873.59;;;15.08;55.08
3464;BME280;3551;41.578;24.706;2022-10-16T11:39:02;91882.44;;;15.08;54.97
3464;BME280;3551;41.578;24.706;2022-10-16T11:41:37;91854.56;;;14.88;53.96
3464;BME280;3551;41.578;24.706;2022-10-16T11:50:48;91874.69;;;15.14;54.01
3464;BME280;3551;41.578;24.706;2022-10-16T11:53:23;91876.31;;;15.04;53.52
3464;BME280;3551;41.578;24.706;2022-10-16T11:55:51;91870.31;;;15.23;52.96
3464;BME280;3551;41.578;24.706;2022-10-16T11:58:26;91886.66;;;15.09;53.60
3464;BME280;3551;41.578;24.706;2022-10-16T12:01:00;91889.44;;;15.02;53.13
3464;BME280;3551;41.578;24.706;2022-10-16T12:09:05;91897.53;;;14.99;53.15
3464;BME280;3551;41.578;24.706;2022-10-16T12:14:34;91864.38;;;15.05;53.60
3464;BME280;3551;41.578;24.706;2022-10-16T12:20:19;91883.47;;;15.18;52.93
3464;BME280;3551;41.578;24.706;2022-10-16T12:22:49;91884.94;;;14.89;52.82
3464;BME280;3551;41.578;24.706;2022-10-16T12:29:13;91899.03;;;15.03;52.50
3464;BME280;3551;41.578;24.706;2022-10-16T12:31:44;91890.53;;;15.08;52.40
3464;BME280;3551;41.578;24.706;2022-10-16T12:34:21;91916.34;;;15.06;51.86
3464;BME280;3551;41.578;24.706;2022-10-16T12:36:50;91938.38;;;14.94;52.36
3464;BME280;3551;41.578;24.706;2022-10-16T12:39:21;91911.53;;;14.83;51.97
3464;BME280;3551;41.578;24.706;2022-10-16T12:42:00;91894.34;;;14.74;51.77
3464;BME280;3551;41.578;24.706;2022-10-16T12:44:31;91910.88;;;14.72;51.63
3464;BME280;3551;41.578;24.706;2022-10-16T12:46:59;91932.69;;;14.85;51.07
3464;BME280;3551;41.578;24.706;2022-10-16T12:54:56;91952.78;;;14.77;50.89
3464;BME280;3551;41.578;24.706;2022-10-16T13:00:26;91943.06;;;14.86;50.07
3464;BME280;3551;41.578;24.706;2022-10-16T13:06:00;91953.84;;;14.83;49.93
3464;BME280;3551;41.578;24.706;2022-10-16T13:08:39;91954.53;;;14.94;49.39
3464;BME280;3551;41.578;24.706;2022-10-16T13:11:17;91934.97;;;14.86;48.71
3464;BME280;3551;41.578;24.706;2022-10-16T13:17:37;91936.16;;;14.85;48.51
3464;BME280;3551;41.578;24.706;2022-10-16T13:20:16;91967.41;;;14.76;47.71
3464;BME280;3551;41.578;24.706;2022-10-16T13:25:40;91952.38;;;14.78;48.14
3464;BME280;3551;41.578;24.706;2022-10-16T13:28:11;91934.53;;;14.50;48.58
3464;BME280;3551;41.578;24.706;2022-10-16T13:30:41;91928.88;;;14.38;48.46
3464;BME280;3551;41.578;24.706;2022-10-16T13:33:17;91932.94;;;14.56;47.96
3464;BME280;3551;41.578;24.706;2022-10-16T13:35:48;91926.38;;;14.57;47.98
3464;BME280;3551;41.578;24.706;2022-10-16T13:38:18;91977.09;;;14.62;48.02
3464;BME280;3551;41.578;24.706;2022-10-16T13:43:33;91982.16;;;14.57;48.70
3464;BME280;3551;41.578;24.706;2022-10-16T13:46:02;91970.34;;;14.44;48.29
3464;BME280;3551;41.578;24.706;2022-10-16T13:48:33;91949.84;;;14.57;48.46
3464;BME280;3551;41.578;24.706;2022-10-16T13:51:03;91952.09;;;14.65;49.11
3464;BME280;3551;41.578;24.706;2022-10-16T13:53:33;91962.91;;;14.62;48.68
3464;BME280;3551;41.578;24.706;2022-10-16T13:56:03;92005.53;;;14.67;48.85
3464;BME280;3551;41.578;24.706;2022-10-16T13:58:30;91983.03;;;14.43;49.56
3464;BME280;3551;41.578;24.706;2022-10-16T14:00:58;91979.19;;;14.44;49.92
3464;BME280;3551;41.578;24.706;2022-10-16T14:03:27;91971.16;;;14.37;49.45
3464;BME280;3551;41.578;24.706;2022-10-16T14:05:59;91970.03;;;14.28;49.39
3464;BME280;3551;41.578;24.706;2022-10-16T14:08:28;91985.47;;;14.13;50.14
3464;BME280;3551;41.578;24.706;2022-10-16T14:10:57;91982.69;;;14.31;50.06
3464;BME280;3551;41.578;24.706;2022-10-16T14:13:30;91983.81;;;14.40;51.29
3464;BME280;3551;41.578;24.706;2022-10-16T14:16:00;92004.22;;;14.34;50.10
3464;BME280;3551;41.578;24.706;2022-10-16T14:18:29;91976.72;;;14.02;50.56
3464;BME280;3551;41.578;24.706;2022-10-16T14:21:04;91986.13;;;14.38;50.13
3464;BME280;3551;41.578;24.706;2022-10-16T14:23:35;91984.59;;;14.37;50.29
3464;BME280;3551;41.578;24.706;2022-10-16T14:29:29;91986.94;;;14.35;50.94
3464;BME280;3551;41.578;24.706;2022-10-16T14:31:58;91989.25;;;14.30;51.99
3464;BME280;3551;41.578;24.706;2022-10-16T14:34:28;91990.41;;;14.29;53.70
3464;BME280;3551;41.578;24.706;2022-10-16T14:37:00;91998.47;;;14.29;54.10
3464;BME280;3551;41.578;24.706;2022-10-16T14:39:33;92004.44;;;13.92;53.61
